sensor_id;sensor_type;location;lat;lon;timestamp;P1;durP1;ratioP1;P2;durP2;ratioP2
12567;SDS011;6349;50.904;6.136;2023-11-19T00:00:33;2.00;;;1.30;;
12567;SDS011;6349;50.904;6.136;2023-11-19T00:02:34;1.00;;;0.90;;
12567;SDS011;6349;50.904;6.136;2023-11-19T00:04:37;1.30;;;0.83;;
12567;SDS011;6349;50.904;6.136;2023-11-19T00:06:41;0.70;;;0.70;;
12567;SDS011;6349;50.904;6.136;2023-11-19T00:08:41;0.60;;;0.60;;
12567;SDS011;6349;50.904;6.136;2023-11-19T00:10:43;0.70;;;0.70;;
12567;SDS011;6349;50.904;6.136;2023-11-19T00:12:45;0.80;;;0.60;;
12567;SDS011;6349;50.904;6.136;2023-11-19T00:14:47;0.60;;;0.60;;
12567;SDS011;6349;50.904;6.136;2023-11-19T00:16:47;0.50;;;0.40;;
12567;SDS011;6349;50.904;6.136;2023-11-19T00:18:51;0.60;;;0.50;;
12567;SDS011;6349;50.904;6.136;2023-11-19T00:20:52;0.60;;;0.40;;
12567;SDS011;6349;50.904;6.136;2023-11-19T00:22:52;0.50;;;0.50;;
12567;SDS011;6349;50.904;6.136;2023-11-19T00:24:53;0.77;;;0.40;;
12567;SDS011;6349;50.904;6.136;2023-11-19T00:26:53;1.03;;;0.60;;
12567;SDS011;6349;50.904;6.136;2023-11-19T00:28:54;0.50;;;0.50;;
12567;SDS011;6349;50.904;6.136;2023-11-19T00:30:56;0.70;;;0.70;;
12567;SDS011;6349;50.904;6.136;2023-11-19T00:32:56;0.90;;;0.80;;
12567;SDS011;6349;50.904;6.136;2023-11-19T00:34:57;0.57;;;0.57;;
12567;SDS011;6349;50.904;6.136;2023-11-19T00:36:57;0.80;;;0.80;;
12567;SDS011;6349;50.904;6.136;2023-11-19T00:38:58;2.70;;;1.03;;
12567;SDS011;6349;50.904;6.136;2023-11-19T00:40:59;0.80;;;0.60;;
12567;SDS011;6349;50.904;6.136;2023-11-19T00:42:59;1.03;;;0.70;;
12567;SDS011;6349;50.904;6.136;2023-11-19T00:45:00;0.70;;;0.70;;
12567;SDS011;6349;50.904;6.136;2023-11-19T00:47:01;1.27;;;0.80;;
12567;SDS011;6349;50.904;6.136;2023-11-19T00:49:02;1.60;;;0.87;;
12567;SDS011;6349;50.904;6.136;2023-11-19T00:51:03;0.93;;;0.90;;
12567;SDS011;6349;50.904;6.136;2023-11-19T00:53:04;0.90;;;0.90;;
12567;SDS011;6349;50.904;6.136;2023-11-19T00:55:04;0.90;;;0.80;;
12567;SDS011;6349;50.904;6.136;2023-11-19T00:57:06;0.90;;;0.90;;
12567;SDS011;6349;50.904;6.136;2023-11-19T00:59:07;2.10;;;1.03;;
12567;SDS011;6349;50.904;6.136;2023-11-19T01:01:08;1.93;;;1.03;;
12567;SDS011;6349;50.904;6.136;2023-11-19T01:03:08;2.63;;;1.10;;
12567;SDS011;6349;50.904;6.136;2023-11-19T01:05:09;1.70;;;1.20;;
12567;SDS011;6349;50.904;6.136;2023-11-19T01:07:09;2.93;;;1.23;;
12567;SDS011;6349;50.904;6.136;2023-11-19T01:09:13;3.03;;;1.20;;
12567;SDS011;6349;50.904;6.136;2023-11-19T01:11:20;3.30;;;1.30;;
12567;SDS011;6349;50.904;6.136;2023-11-19T01:13:21;1.87;;;1.30;;
12567;SDS011;6349;50.904;6.136;2023-11-19T01:15:22;2.30;;;1.40;;
12567;SDS011;6349;50.904;6.136;2023-11-19T01:17:23;2.13;;;1.33;;
12567;SDS011;6349;50.904;6.136;2023-11-19T01:19:23;2.90;;;1.37;;
12567;SDS011;6349;50.904;6.136;2023-11-19T01:21:24;2.80;;;1.47;;
12567;SDS011;6349;50.904;6.136;2023-11-19T01:23:25;1.63;;;1.20;;
12567;SDS011;6349;50.904;6.136;2023-11-19T01:25:25;2.87;;;1.70;;
12567;SDS011;6349;50.904;6.136;2023-11-19T01:27:26;3.43;;;1.70;;
12567;SDS011;6349;50.904;6.136;2023-11-19T01:29:26;2.70;;;1.20;;
12567;SDS011;6349;50.904;6.136;2023-11-19T01:31:27;3.90;;;1.53;;
12567;SDS011;6349;50.904;6.136;2023-11-19T01:33:27;3.77;;;1.63;;
12567;SDS011;6349;50.904;6.136;2023-11-19T01:35:28;4.33;;;1.60;;
12567;SDS011;6349;50.904;6.136;2023-11-19T01:37:28;3.00;;;1.50;;
12567;SDS011;6349;50.904;6.136;2023-11-19T01:39:29;3.47;;;1.70;;
12567;SDS011;6349;50.904;6.136;2023-11-19T01:41:33;5.97;;;1.70;;
12567;SDS011;6349;50.904;6.136;2023-11-19T01:43:36;5.27;;;1.70;;
12567;SDS011;6349;50.904;6.136;2023-11-19T01:45:38;4.23;;;1.50;;
12567;SDS011;6349;50.904;6.136;2023-11-19T01:47:39;2.83;;;1.50;;
12567;SDS011;6349;50.904;6.136;2023-11-19T01:49:40;5.40;;;1.60;;
12567;SDS011;6349;50.904;6.136;2023-11-19T01:51:41;4.63;;;2.07;;
12567;SDS011;6349;50.904;6.136;2023-11-19T01:53:43;3.47;;;1.37;;
12567;SDS011;6349;50.904;6.136;2023-11-19T01:55:45;4.80;;;1.70;;
12567;SDS011;6349;50.904;6.136;2023-11-19T01:57:47;3.73;;;1.70;;
12567;SDS011;6349;50.904;6.136;2023-11-19T01:59:50;4.90;;;1.73;;
12567;SDS011;6349;50.904;6.136;2023-11-19T02:01:53;3.97;;;1.60;;
12567;SDS011;6349;50.904;6.136;2023-11-19T02:03:54;3.73;;;1.73;;
12567;SDS011;6349;50.904;6.136;2023-11-19T02:05:55;3.87;;;1.60;;
12567;SDS011;6349;50.904;6.136;2023-11-19T02:07:56;6.87;;;1.93;;
12567;SDS011;6349;50.904;6.136;2023-11-19T02:09:56;4.17;;;1.80;;
12567;SDS011;6349;50.904;6.136;2023-11-19T02:11:59;3.87;;;1.80;;
12567;SDS011;6349;50.904;6.136;2023-11-19T02:14:00;4.60;;;1.60;;
12567;SDS011;6349;50.904;6.136;2023-11-19T02:16:00;4.67;;;1.70;;
12567;SDS011;6349;50.904;6.136;2023-11-19T02:20:38;4.33;;;1.63;;
12567;SDS011;6349;50.904;6.136;2023-11-19T02:22:40;3.77;;;1.47;;
12567;SDS011;6349;50.904;6.136;2023-11-19T02:24:41;3.40;;;1.47;;
12567;SDS011;6349;50.904;6.136;2023-11-19T02:29:40;3.47;;;1.60;;
12567;SDS011;6349;50.904;6.136;2023-11-19T02:31:41;5.97;;;1.60;;
12567;SDS011;6349;50.904;6.136;2023-11-19T02:33:41;5.73;;;1.67;;
12567;SDS011;6349;50.904;6.136;2023-11-19T02:35:42;4.70;;;1.87;;
12567;SDS011;6349;50.904;6.136;2023-11-19T02:37:42;6.80;;;1.70;;
12567;SDS011;6349;50.904;6.136;2023-11-19T02:39:45;4.70;;;1.80;;
12567;SDS011;6349;50.904;6.136;2023-11-19T02:41:45;4.77;;;1.83;;
12567;SDS011;6349;50.904;6.136;2023-11-19T02:43:46;4.80;;;1.70;;
12567;SDS011;6349;50.904;6.136;2023-11-19T02:45:48;5.80;;;2.07;;
12567;SDS011;6349;50.904;6.136;2023-11-19T02:47:49;4.30;;;1.50;;
12567;SDS011;6349;50.904;6.136;2023-11-19T02:49:50;7.30;;;2.13;;
12567;SDS011;6349;50.904;6.136;2023-11-19T02:51:51;4.50;;;1.83;;
12567;SDS011;6349;50.904;6.136;2023-11-19T02:53:51;5.20;;;1.73;;
12567;SDS011;6349;50.904;6.136;2023-11-19T02:55:52;4.47;;;1.87;;
12567;SDS011;6349;50.904;6.136;2023-11-19T02:57:53;6.30;;;2.00;;
12567;SDS011;6349;50.904;6.136;2023-11-19T02:59:56;6.57;;;2.00;;
12567;SDS011;6349;50.904;6.136;2023-11-19T03:01:56;5.63;;;1.90;;
12567;SDS011;6349;50.904;6.136;2023-11-19T03:03:59;5.47;;;1.93;;
12567;SDS011;6349;50.904;6.136;2023-11-19T03:06:01;5.13;;;1.80;;
12567;SDS011;6349;50.904;6.136;2023-11-19T03:08:04;5.40;;;1.83;;
12567;SDS011;6349;50.904;6.136;2023-11-19T03:10:05;7.47;;;2.20;;
12567;SDS011;6349;50.904;6.136;2023-11-19T03:12:06;6.37;;;1.87;;
12567;SDS011;6349;50.904;6.136;2023-11-19T03:14:07;5.00;;;1.60;;
12567;SDS011;6349;50.904;6.136;2023-11-19T03:16:08;6.43;;;2.00;;
12567;SDS011;6349;50.904;6.136;2023-11-19T03:18:08;5.07;;;1.80;;
12567;SDS011;6349;50.904;6.136;2023-11-19T03:20:10;5.33;;;2.43;;
12567;SDS011;6349;50.904;6.136;2023-11-19T03:22:14;7.37;;;2.30;;
12567;SDS011;6349;50.904;6.136;2023-11-19T03:24:15;7.20;;;2.00;;
12567;SDS011;6349;50.904;6.136;2023-11-19T03:26:17;5.63;;;2.00;;
12567;SDS011;6349;50.904;6.136;2023-11-19T03:28:17;5.27;;;2.00;;
12567;SDS011;6349;50.904;6.136;2023-11-19T03:30:18;5.20;;;2.10;;
12567;SDS011;6349;50.904;6.136;2023-11-19T03:32:18;7.87;;;2.20;;
12567;SDS011;6349;50.904;6.136;2023-11-19T03:34:19;5.73;;;1.93;;
12567;SDS011;6349;50.904;6.136;2023-11-19T03:36:20;9.00;;;2.50;;
12567;SDS011;6349;50.904;6.136;2023-11-19T03:38:21;6.73;;;2.33;;
12567;SDS011;6349;50.904;6.136;2023-11-19T03:40:21;8.90;;;2.33;;
12567;SDS011;6349;50.904;6.136;2023-11-19T03:42:22;7.20;;;2.20;;
12567;SDS011;6349;50.904;6.136;2023-11-19T03:44:23;7.73;;;2.40;;
12567;SDS011;6349;50.904;6.136;2023-11-19T03:46:26;5.97;;;2.40;;
12567;SDS011;6349;50.904;6.136;2023-11-19T03:48:27;8.27;;;2.43;;
12567;SDS011;6349;50.904;6.136;2023-11-19T03:50:27;8.37;;;2.37;;
12567;SDS011;6349;50.904;6.136;2023-11-19T03:52:28;7.77;;;2.43;;
12567;SDS011;6349;50.904;6.136;2023-11-19T03:54:29;8.20;;;2.40;;
12567;SDS011;6349;50.904;6.136;2023-11-19T03:56:30;9.93;;;2.67;;
12567;SDS011;6349;50.904;6.136;2023-11-19T03:58:31;9.50;;;2.63;;
12567;SDS011;6349;50.904;6.136;2023-11-19T04:00:32;8.97;;;2.40;;
12567;SDS011;6349;50.904;6.136;2023-11-19T04:02:32;11.10;;;2.63;;
12567;SDS011;6349;50.904;6.136;2023-11-19T04:04:33;9.20;;;2.27;;
12567;SDS011;6349;50.904;6.136;2023-11-19T04:06:33;10.50;;;2.63;;
12567;SDS011;6349;50.904;6.136;2023-11-19T04:08:34;10.63;;;2.47;;
12567;SDS011;6349;50.904;6.136;2023-11-19T04:10:35;8.80;;;2.50;;
12567;SDS011;6349;50.904;6.136;2023-11-19T04:12:36;9.73;;;2.70;;
12567;SDS011;6349;50.904;6.136;2023-11-19T04:14:36;7.57;;;2.33;;
12567;SDS011;6349;50.904;6.136;2023-11-19T04:16:37;8.17;;;2.17;;
12567;SDS011;6349;50.904;6.136;2023-11-19T04:18:37;7.53;;;2.50;;
12567;SDS011;6349;50.904;6.136;2023-11-19T04:20:38;7.73;;;2.00;;
12567;SDS011;6349;50.904;6.136;2023-11-19T04:22:39;7.77;;;2.17;;
12567;SDS011;6349;50.904;6.136;2023-11-19T04:24:40;8.13;;;2.33;;
12567;SDS011;6349;50.904;6.136;2023-11-19T04:26:44;6.50;;;2.33;;
12567;SDS011;6349;50.904;6.136;2023-11-19T04:28:46;7.97;;;2.37;;
12567;SDS011;6349;50.904;6.136;2023-11-19T04:30:46;9.57;;;2.40;;
12567;SDS011;6349;50.904;6.136;2023-11-19T04:32:47;5.60;;;1.80;;
12567;SDS011;6349;50.904;6.136;2023-11-19T04:34:48;7.90;;;2.30;;
12567;SDS011;6349;50.904;6.136;2023-11-19T04:36:49;9.10;;;2.07;;
12567;SDS011;6349;50.904;6.136;2023-11-19T04:38:50;8.17;;;2.40;;
12567;SDS011;6349;50.904;6.136;2023-11-19T04:40:50;7.60;;;2.30;;
12567;SDS011;6349;50.904;6.136;2023-11-19T04:42:51;8.83;;;2.47;;
12567;SDS011;6349;50.904;6.136;2023-11-19T04:44:52;6.77;;;2.30;;
12567;SDS011;6349;50.904;6.136;2023-11-19T04:46:52;7.83;;;2.50;;
12567;SDS011;6349;50.904;6.136;2023-11-19T04:48:53;8.90;;;2.27;;
12567;SDS011;6349;50.904;6.136;2023-11-19T04:50:53;7.90;;;2.83;;
12567;SDS011;6349;50.904;6.136;2023-11-19T04:52:54;9.13;;;2.90;;
12567;SDS011;6349;50.904;6.136;2023-11-19T04:54:55;6.13;;;2.40;;
12567;SDS011;6349;50.904;6.136;2023-11-19T04:56:56;7.57;;;2.37;;
12567;SDS011;6349;50.904;6.136;2023-11-19T04:58:56;9.13;;;2.47;;
12567;SDS011;6349;50.904;6.136;2023-11-19T05:00:57;8.10;;;2.20;;
12567;SDS011;6349;50.904;6.136;2023-11-19T05:02:57;7.63;;;2.43;;
12567;SDS011;6349;50.904;6.136;2023-11-19T05:04:58;7.27;;;2.07;;
12567;SDS011;6349;50.904;6.136;2023-11-19T05:06:59;6.97;;;2.33;;
12567;SDS011;6349;50.904;6.136;2023-11-19T05:09:00;8.93;;;2.20;;
12567;SDS011;6349;50.904;6.136;2023-11-19T05:11:01;10.80;;;2.23;;
12567;SDS011;6349;50.904;6.136;2023-11-19T05:13:01;11.50;;;2.10;;
12567;SDS011;6349;50.904;6.136;2023-11-19T05:15:02;9.50;;;2.63;;
12567;SDS011;6349;50.904;6.136;2023-11-19T05:17:03;8.73;;;2.50;;
12567;SDS011;6349;50.904;6.136;2023-11-19T05:19:03;10.03;;;2.80;;
12567;SDS011;6349;50.904;6.136;2023-11-19T05:21:04;10.43;;;2.97;;
12567;SDS011;6349;50.904;6.136;2023-11-19T05:23:05;9.00;;;2.60;;
12567;SDS011;6349;50.904;6.136;2023-11-19T05:25:05;8.70;;;2.50;;
12567;SDS011;6349;50.904;6.136;2023-11-19T05:27:06;8.87;;;2.30;;
12567;SDS011;6349;50.904;6.136;2023-11-19T05:29:07;8.83;;;2.33;;
12567;SDS011;6349;50.904;6.136;2023-11-19T05:31:08;9.07;;;2.80;;
12567;SDS011;6349;50.904;6.136;2023-11-19T05:33:09;6.97;;;2.40;;
12567;SDS011;6349;50.904;6.136;2023-11-19T05:35:10;10.63;;;2.63;;
12567;SDS011;6349;50.904;6.136;2023-11-19T05:37:11;10.07;;;2.70;;
12567;SDS011;6349;50.904;6.136;2023-11-19T05:39:12;12.03;;;2.70;;
12567;SDS011;6349;50.904;6.136;2023-11-19T05:41:12;10.60;;;2.67;;
12567;SDS011;6349;50.904;6.136;2023-11-19T05:43:13;9.87;;;2.37;;
12567;SDS011;6349;50.904;6.136;2023-11-19T05:45:15;8.83;;;2.30;;
12567;SDS011;6349;50.904;6.136;2023-11-19T05:47:15;12.63;;;2.37;;
12567;SDS011;6349;50.904;6.136;2023-11-19T05:49:16;11.83;;;2.47;;
12567;SDS011;6349;50.904;6.136;2023-11-19T05:51:17;9.43;;;2.57;;
12567;SDS011;6349;50.904;6.136;2023-11-19T05:53:17;9.13;;;3.30;;
12567;SDS011;6349;50.904;6.136;2023-11-19T05:55:18;9.37;;;2.60;;
12567;SDS011;6349;50.904;6.136;2023-11-19T05:57:19;15.77;;;3.27;;
12567;SDS011;6349;50.904;6.136;2023-11-19T05:59:23;13.57;;;2.93;;
12567;SDS011;6349;50.904;6.136;2023-11-19T06:01:24;10.03;;;3.07;;
12567;SDS011;6349;50.904;6.136;2023-11-19T06:03:25;12.43;;;2.30;;
12567;SDS011;6349;50.904;6.136;2023-11-19T06:05:25;10.30;;;2.80;;
12567;SDS011;6349;50.904;6.136;2023-11-19T06:07:26;12.60;;;3.60;;
12567;SDS011;6349;50.904;6.136;2023-11-19T06:09:27;12.37;;;2.87;;
12567;SDS011;6349;50.904;6.136;2023-11-19T06:11:28;10.07;;;2.50;;
12567;SDS011;6349;50.904;6.136;2023-11-19T06:13:28;10.00;;;2.90;;
12567;SDS011;6349;50.904;6.136;2023-11-19T06:15:30;10.10;;;2.83;;
12567;SDS011;6349;50.904;6.136;2023-11-19T06:17:32;9.63;;;2.50;;
12567;SDS011;6349;50.904;6.136;2023-11-19T06:19:33;10.67;;;2.60;;
12567;SDS011;6349;50.904;6.136;2023-11-19T06:21:34;10.20;;;2.57;;
12567;SDS011;6349;50.904;6.136;2023-11-19T06:23:36;9.67;;;3.00;;
12567;SDS011;6349;50.904;6.136;2023-11-19T06:25:37;10.13;;;3.37;;
12567;SDS011;6349;50.904;6.136;2023-11-19T06:27:38;12.67;;;2.73;;
12567;SDS011;6349;50.904;6.136;2023-11-19T06:29:38;10.60;;;2.50;;
12567;SDS011;6349;50.904;6.136;2023-11-19T06:31:41;10.37;;;2.80;;
12567;SDS011;6349;50.904;6.136;2023-11-19T06:33:42;12.60;;;2.90;;
12567;SDS011;6349;50.904;6.136;2023-11-19T06:35:42;8.27;;;2.70;;
12567;SDS011;6349;50.904;6.136;2023-11-19T06:37:43;7.57;;;2.40;;
12567;SDS011;6349;50.904;6.136;2023-11-19T06:39:44;8.67;;;2.60;;
12567;SDS011;6349;50.904;6.136;2023-11-19T06:41:45;10.53;;;3.17;;
12567;SDS011;6349;50.904;6.136;2023-11-19T06:43:46;9.17;;;2.70;;
12567;SDS011;6349;50.904;6.136;2023-11-19T06:45:47;6.33;;;2.43;;
12567;SDS011;6349;50.904;6.136;2023-11-19T06:47:47;10.17;;;3.27;;
12567;SDS011;6349;50.904;6.136;2023-11-19T06:49:48;9.57;;;3.10;;
12567;SDS011;6349;50.904;6.136;2023-11-19T06:51:48;12.97;;;3.00;;
12567;SDS011;6349;50.904;6.136;2023-11-19T06:53:49;10.87;;;3.23;;
12567;SDS011;6349;50.904;6.136;2023-11-19T06:55:50;10.40;;;2.90;;
12567;SDS011;6349;50.904;6.136;2023-11-19T06:57:50;12.83;;;2.63;;
12567;SDS011;6349;50.904;6.136;2023-11-19T06:59:51;11.40;;;2.70;;
12567;SDS011;6349;50.904;6.136;2023-11-19T07:01:52;9.30;;;2.87;;
12567;SDS011;6349;50.904;6.136;2023-11-19T07:03:52;9.80;;;2.73;;
12567;SDS011;6349;50.904;6.136;2023-11-19T07:05:53;10.47;;;2.50;;
12567;SDS011;6349;50.904;6.136;2023-11-19T07:07:55;10.87;;;2.60;;
12567;SDS011;6349;50.904;6.136;2023-11-19T07:09:56;10.70;;;2.37;;
12567;SDS011;6349;50.904;6.136;2023-11-19T07:11:56;11.77;;;3.10;;
12567;SDS011;6349;50.904;6.136;2023-11-19T07:13:57;17.17;;;3.20;;
12567;SDS011;6349;50.904;6.136;2023-11-19T07:15:57;13.40;;;3.43;;
12567;SDS011;6349;50.904;6.136;2023-11-19T07:17:58;12.77;;;3.07;;
12567;SDS011;6349;50.904;6.136;2023-11-19T07:19:59;11.00;;;3.13;;
12567;SDS011;6349;50.904;6.136;2023-11-19T07:22:00;9.60;;;2.80;;
12567;SDS011;6349;50.904;6.136;2023-11-19T07:24:00;13.67;;;3.60;;
12567;SDS011;6349;50.904;6.136;2023-11-19T07:26:04;10.13;;;3.03;;
12567;SDS011;6349;50.904;6.136;2023-11-19T07:28:08;12.90;;;2.73;;
12567;SDS011;6349;50.904;6.136;2023-11-19T07:30:09;10.03;;;3.20;;
12567;SDS011;6349;50.904;6.136;2023-11-19T07:32:10;9.77;;;2.83;;
12567;SDS011;6349;50.904;6.136;2023-11-19T07:34:11;10.23;;;3.20;;
12567;SDS011;6349;50.904;6.136;2023-11-19T07:36:14;12.20;;;3.10;;
12567;SDS011;6349;50.904;6.136;2023-11-19T07:38:14;12.83;;;3.40;;
12567;SDS011;6349;50.904;6.136;2023-11-19T07:40:15;11.00;;;3.03;;
12567;SDS011;6349;50.904;6.136;2023-11-19T07:42:15;10.20;;;2.63;;
12567;SDS011;6349;50.904;6.136;2023-11-19T07:44:16;9.53;;;2.90;;
12567;SDS011;6349;50.904;6.136;2023-11-19T07:46:17;12.63;;;3.37;;
12567;SDS011;6349;50.904;6.136;2023-11-19T07:48:19;8.03;;;2.60;;
12567;SDS011;6349;50.904;6.136;2023-11-19T07:50:23;11.23;;;2.90;;
12567;SDS011;6349;50.904;6.136;2023-11-19T07:52:25;11.83;;;3.30;;
12567;SDS011;6349;50.904;6.136;2023-11-19T07:54:25;10.13;;;3.23;;
12567;SDS011;6349;50.904;6.136;2023-11-19T07:56:26;11.03;;;2.80;;
12567;SDS011;6349;50.904;6.136;2023-11-19T07:58:27;14.67;;;3.43;;
12567;SDS011;6349;50.904;6.136;2023-11-19T08:00:28;11.27;;;3.10;;
12567;SDS011;6349;50.904;6.136;2023-11-19T08:02:28;10.80;;;3.50;;
12567;SDS011;6349;50.904;6.136;2023-11-19T08:04:29;14.60;;;3.13;;
12567;SDS011;6349;50.904;6.136;2023-11-19T08:06:29;15.00;;;3.30;;
12567;SDS011;6349;50.904;6.136;2023-11-19T08:08:30;11.83;;;3.00;;
12567;SDS011;6349;50.904;6.136;2023-11-19T08:10:32;14.60;;;3.43;;
12567;SDS011;6349;50.904;6.136;2023-11-19T08:12:33;11.43;;;3.23;;
12567;SDS011;6349;50.904;6.136;2023-11-19T08:14:35;10.00;;;2.83;;
12567;SDS011;6349;50.904;6.136;2023-11-19T08:16:35;11.20;;;3.00;;
12567;SDS011;6349;50.904;6.136;2023-11-19T08:18:38;11.47;;;3.03;;
12567;SDS011;6349;50.904;6.136;2023-11-19T08:20:45;10.93;;;3.50;;
12567;SDS011;6349;50.904;6.136;2023-11-19T08:22:47;15.33;;;3.53;;
12567;SDS011;6349;50.904;6.136;2023-11-19T08:24:48;11.93;;;2.80;;
12567;SDS011;6349;50.904;6.136;2023-11-19T08:26:49;13.63;;;4.17;;
12567;SDS011;6349;50.904;6.136;2023-11-19T08:28:49;11.83;;;2.80;;
12567;SDS011;6349;50.904;6.136;2023-11-19T08:30:52;11.83;;;3.30;;
12567;SDS011;6349;50.904;6.136;2023-11-19T08:32:52;14.17;;;3.60;;
12567;SDS011;6349;50.904;6.136;2023-11-19T08:34:53;12.77;;;3.30;;
12567;SDS011;6349;50.904;6.136;2023-11-19T08:36:54;14.13;;;3.63;;
12567;SDS011;6349;50.904;6.136;2023-11-19T08:38:54;9.77;;;2.87;;
12567;SDS011;6349;50.904;6.136;2023-11-19T08:40:55;14.50;;;3.60;;
12567;SDS011;6349;50.904;6.136;2023-11-19T08:42:59;11.40;;;3.17;;
12567;SDS011;6349;50.904;6.136;2023-11-19T08:45:00;13.10;;;3.33;;
12567;SDS011;6349;50.904;6.136;2023-11-19T08:47:01;10.70;;;3.00;;
12567;SDS011;6349;50.904;6.136;2023-11-19T08:49:01;13.00;;;3.23;;
12567;SDS011;6349;50.904;6.136;2023-11-19T08:51:03;12.93;;;3.03;;
12567;SDS011;6349;50.904;6.136;2023-11-19T08:53:04;12.73;;;3.23;;
12567;SDS011;6349;50.904;6.136;2023-11-19T08:55:06;15.50;;;3.70;;
12567;SDS011;6349;50.904;6.136;2023-11-19T08:57:09;14.33;;;3.30;;
12567;SDS011;6349;50.904;6.136;2023-11-19T08:59:10;13.07;;;3.30;;
12567;SDS011;6349;50.904;6.136;2023-11-19T09:01:11;16.27;;;3.60;;
12567;SDS011;6349;50.904;6.136;2023-11-19T09:03:11;11.97;;;3.60;;
12567;SDS011;6349;50.904;6.136;2023-11-19T09:05:12;12.60;;;3.67;;
12567;SDS011;6349;50.904;6.136;2023-11-19T09:07:12;13.47;;;3.30;;
12567;SDS011;6349;50.904;6.136;2023-11-19T09:09:13;17.47;;;4.17;;
12567;SDS011;6349;50.904;6.136;2023-11-19T09:11:14;13.10;;;3.40;;
12567;SDS011;6349;50.904;6.136;2023-11-19T09:13:14;16.37;;;4.23;;
12567;SDS011;6349;50.904;6.136;2023-11-19T09:15:15;15.87;;;3.67;;
12567;SDS011;6349;50.904;6.136;2023-11-19T09:17:16;17.00;;;3.57;;
12567;SDS011;6349;50.904;6.136;2023-11-19T09:19:18;12.17;;;2.90;;
12567;SDS011;6349;50.904;6.136;2023-11-19T09:21:18;15.77;;;4.03;;
12567;SDS011;6349;50.904;6.136;2023-11-19T09:23:19;13.10;;;3.80;;
12567;SDS011;6349;50.904;6.136;2023-11-19T09:25:20;14.27;;;3.67;;
12567;SDS011;6349;50.904;6.136;2023-11-19T09:27:20;11.13;;;3.10;;
12567;SDS011;6349;50.904;6.136;2023-11-19T09:29:21;12.67;;;2.93;;
12567;SDS011;6349;50.904;6.136;2023-11-19T09:31:22;9.50;;;2.73;;
12567;SDS011;6349;50.904;6.136;2023-11-19T09:33:22;11.20;;;3.00;;
12567;SDS011;6349;50.904;6.136;2023-11-19T09:35:23;13.53;;;3.57;;
12567;SDS011;6349;50.904;6.136;2023-11-19T09:37:23;12.20;;;3.70;;
12567;SDS011;6349;50.904;6.136;2023-11-19T09:39:24;14.10;;;3.30;;
12567;SDS011;6349;50.904;6.136;2023-11-19T09:41:25;11.53;;;3.13;;
12567;SDS011;6349;50.904;6.136;2023-11-19T09:43:28;10.97;;;2.90;;
12567;SDS011;6349;50.904;6.136;2023-11-19T09:45:28;10.07;;;3.30;;
12567;SDS011;6349;50.904;6.136;2023-11-19T09:47:32;11.03;;;3.03;;
12567;SDS011;6349;50.904;6.136;2023-11-19T09:49:33;9.53;;;3.30;;
12567;SDS011;6349;50.904;6.136;2023-11-19T09:51:36;10.73;;;3.23;;
12567;SDS011;6349;50.904;6.136;2023-11-19T09:53:37;10.20;;;2.90;;
12567;SDS011;6349;50.904;6.136;2023-11-19T09:55:38;9.57;;;2.90;;
12567;SDS011;6349;50.904;6.136;2023-11-19T09:57:39;11.33;;;2.97;;
12567;SDS011;6349;50.904;6.136;2023-11-19T09:59:40;13.20;;;3.20;;
12567;SDS011;6349;50.904;6.136;2023-11-19T10:01:42;11.60;;;2.90;;
12567;SDS011;6349;50.904;6.136;2023-11-19T10:03:43;12.17;;;3.53;;
12567;SDS011;6349;50.904;6.136;2023-11-19T10:05:47;14.13;;;3.47;;
12567;SDS011;6349;50.904;6.136;2023-11-19T10:07:48;10.40;;;3.10;;
12567;SDS011;6349;50.904;6.136;2023-11-19T10:09:49;12.77;;;3.33;;
12567;SDS011;6349;50.904;6.136;2023-11-19T10:11:50;12.83;;;3.20;;
12567;SDS011;6349;50.904;6.136;2023-11-19T10:13:51;10.73;;;2.73;;
12567;SDS011;6349;50.904;6.136;2023-11-19T10:15:53;12.90;;;3.17;;
12567;SDS011;6349;50.904;6.136;2023-11-19T10:17:56;11.37;;;3.07;;
12567;SDS011;6349;50.904;6.136;2023-11-19T10:19:57;9.17;;;2.97;;
12567;SDS011;6349;50.904;6.136;2023-11-19T10:22:01;10.90;;;2.80;;
12567;SDS011;6349;50.904;6.136;2023-11-19T10:24:04;13.90;;;4.00;;
12567;SDS011;6349;50.904;6.136;2023-11-19T10:26:05;13.20;;;3.07;;
12567;SDS011;6349;50.904;6.136;2023-11-19T10:28:06;10.57;;;3.17;;
12567;SDS011;6349;50.904;6.136;2023-11-19T10:30:07;10.27;;;2.93;;
12567;SDS011;6349;50.904;6.136;2023-11-19T10:32:10;11.37;;;2.70;;
12567;SDS011;6349;50.904;6.136;2023-11-19T10:34:24;9.63;;;3.10;;
12567;SDS011;6349;50.904;6.136;2023-11-19T10:36:37;11.90;;;3.20;;
12567;SDS011;6349;50.904;6.136;2023-11-19T10:38:41;12.90;;;3.50;;
12567;SDS011;6349;50.904;6.136;2023-11-19T10:40:55;10.07;;;2.93;;
12567;SDS011;6349;50.904;6.136;2023-11-19T10:43:02;11.10;;;3.40;;
12567;SDS011;6349;50.904;6.136;2023-11-19T10:45:03;11.07;;;3.17;;
12567;SDS011;6349;50.904;6.136;2023-11-19T10:47:05;10.57;;;3.03;;
12567;SDS011;6349;50.904;6.136;2023-11-19T10:49:08;13.27;;;3.40;;
12567;SDS011;6349;50.904;6.136;2023-11-19T10:51:08;10.33;;;3.13;;
12567;SDS011;6349;50.904;6.136;2023-11-19T10:53:11;10.70;;;2.73;;
12567;SDS011;6349;50.904;6.136;2023-11-19T10:55:15;9.70;;;2.70;;
12567;SDS011;6349;50.904;6.136;2023-11-19T10:57:20;9.93;;;2.90;;
12567;SDS011;6349;50.904;6.136;2023-11-19T10:59:25;7.53;;;2.70;;
12567;SDS011;6349;50.904;6.136;2023-11-19T11:01:38;8.80;;;2.67;;
12567;SDS011;6349;50.904;6.136;2023-11-19T11:03:45;8.43;;;2.53;;
12567;SDS011;6349;50.904;6.136;2023-11-19T11:05:46;7.53;;;2.33;;
12567;SDS011;6349;50.904;6.136;2023-11-19T11:07:48;12.07;;;2.40;;
12567;SDS011;6349;50.904;6.136;2023-11-19T11:09:51;10.47;;;2.33;;
12567;SDS011;6349;50.904;6.136;2023-11-19T11:11:53;9.17;;;2.43;;
12567;SDS011;6349;50.904;6.136;2023-11-19T11:13:55;10.40;;;2.87;;
12567;SDS011;6349;50.904;6.136;2023-11-19T11:16:00;9.37;;;2.50;;
12567;SDS011;6349;50.904;6.136;2023-11-19T11:18:02;13.20;;;2.60;;
12567;SDS011;6349;50.904;6.136;2023-11-19T11:20:03;9.03;;;2.73;;
12567;SDS011;6349;50.904;6.136;2023-11-19T11:22:05;9.50;;;2.53;;
12567;SDS011;6349;50.904;6.136;2023-11-19T11:36:43;9.73;;;2.77;;
12567;SDS011;6349;50.904;6.136;2023-11-19T11:38:23;8.37;;;2.93;;
12567;SDS011;6349;50.904;6.136;2023-11-19T11:40:25;7.13;;;3.00;;
12567;SDS011;6349;50.904;6.136;2023-11-19T11:47:03;10.23;;;2.57;;
12567;SDS011;6349;50.904;6.136;2023-11-19T11:49:07;10.23;;;2.67;;
12567;SDS011;6349;50.904;6.136;2023-11-19T11:51:07;11.40;;;2.60;;
12567;SDS011;6349;50.904;6.136;2023-11-19T11:53:18;8.77;;;2.93;;
12567;SDS011;6349;50.904;6.136;2023-11-19T11:55:23;15.23;;;3.00;;
12567;SDS011;6349;50.904;6.136;2023-11-19T11:57:42;10.03;;;2.57;;
12567;SDS011;6349;50.904;6.136;2023-11-19T11:59:45;10.17;;;2.90;;
12567;SDS011;6349;50.904;6.136;2023-11-19T12:01:59;10.70;;;3.10;;
12567;SDS011;6349;50.904;6.136;2023-11-19T12:03:59;10.77;;;2.67;;
12567;SDS011;6349;50.904;6.136;2023-11-19T12:06:00;10.50;;;2.93;;
12567;SDS011;6349;50.904;6.136;2023-11-19T12:08:01;9.03;;;2.33;;
12567;SDS011;6349;50.904;6.136;2023-11-19T12:10:11;9.37;;;2.80;;
12567;SDS011;6349;50.904;6.136;2023-11-19T12:12:17;8.17;;;2.23;;
12567;SDS011;6349;50.904;6.136;2023-11-19T12:14:57;9.10;;;2.50;;
12567;SDS011;6349;50.904;6.136;2023-11-19T12:17:25;7.63;;;2.40;;
12567;SDS011;6349;50.904;6.136;2023-11-19T12:19:33;7.97;;;2.50;;
12567;SDS011;6349;50.904;6.136;2023-11-19T12:21:34;7.90;;;2.70;;
12567;SDS011;6349;50.904;6.136;2023-11-19T12:23:43;7.93;;;2.30;;
12567;SDS011;6349;50.904;6.136;2023-11-19T12:25:46;9.07;;;2.27;;
12567;SDS011;6349;50.904;6.136;2023-11-19T12:27:47;8.83;;;2.33;;
12567;SDS011;6349;50.904;6.136;2023-11-19T12:29:49;10.13;;;2.73;;
12567;SDS011;6349;50.904;6.136;2023-11-19T12:31:53;8.13;;;3.00;;
12567;SDS011;6349;50.904;6.136;2023-11-19T12:33:54;8.93;;;2.50;;
12567;SDS011;6349;50.904;6.136;2023-11-19T12:35:55;8.87;;;3.03;;
12567;SDS011;6349;50.904;6.136;2023-11-19T12:37:56;8.67;;;2.87;;
12567;SDS011;6349;50.904;6.136;2023-11-19T12:39:57;7.80;;;2.53;;
12567;SDS011;6349;50.904;6.136;2023-11-19T12:41:58;8.53;;;2.70;;